Flight Track Log - Related Links

Times and Time Zones

All times are in EDT time to prevent confusion due to time zone crossing. See the UAL4419 flight status page for this flight to view local times or setup timezone preferences in your user account.

Time Position Orientation Groundspeed Altitude Reporting Facility
EDT Latitude Longitude Course Direction KTS MPH feet Rate Location/Type
Mon 08:05:13 PM 29.9639 -95.3433 30° Northeast 152 175 700  Level Houston Center
Mon 08:05:31 PM 29.9544 -95.3433 180° South 164 189 1,200 1,275 Climbing Houston Center
Mon 08:06:33 PM 29.9539 -95.3925 269° West 234 269 2,400 1,887 Climbing Houston Center
Mon 08:07:35 PM 30.0200 -95.3717 15° North 253 291 5,100 2,613 Climbing Houston Center
Mon 08:08:37 PM 30.1006 -95.3267 26° Northeast 264 304 7,800 2,516 Climbing Houston Center
Mon 08:09:00 PM 30.4594 -95.1344 27° Northeast  Level FlightAware Approximate
Mon 08:09:39 PM 30.1728 -95.2867 26° Northeast 280 322 10,300  Level Houston Center
Mon 08:10:00 PM 30.5512 -95.0881 30° Northeast  Level FlightAware Approximate
Mon 08:10:40 PM 30.2542 -95.2464 23° Northeast 314 361 11,100  Level Houston Center
Mon 08:11:42 PM 30.3436 -95.2003 24° Northeast 345 397 12,200 1,306 Climbing Houston Center
Mon 08:12:44 PM 30.4442 -95.1494 24° Northeast 365 420 13,800 1,500 Climbing Houston Center
Mon 08:13:46 PM 30.5381 -95.1008 24° Northeast 368 423 15,300 1,306 Climbing Houston Center
Mon 08:14:48 PM 30.6325 -95.0486 25° Northeast 373 429 16,500 1,210 Climbing Houston Center
Mon 08:15:50 PM 30.7272 -94.9883 29° Northeast 383 441 17,800 1,597 Climbing Houston Center
Mon 08:16:52 PM 30.8392 -94.9183 28° Northeast 383 441 19,800 1,597 Climbing Houston Center
Mon 08:17:54 PM 30.9325 -94.8608 28° Northeast 380 437 21,100 1,256 Climbing Houston Center
Mon 08:18:18 PM 30.9700 -94.8381 28° Northeast 372 428 21,600 1,143 Climbing Fort Worth Center
Mon 08:19:18 PM 31.0647 -94.7772 29° Northeast 372 428 22,700 1,050 Climbing Fort Worth Center
Mon 08:20:18 PM 31.1556 -94.7239 27° Northeast 384 442 23,700 1,000 Climbing Fort Worth Center
Mon 08:21:18 PM 31.2542 -94.6553 31° Northeast 391 450 24,700 1,050 Climbing Fort Worth Center
Mon 08:22:18 PM 31.3508 -94.5892 30° Northeast 398 458 25,800 1,050 Climbing Fort Worth Center
Mon 08:23:18 PM 31.4494 -94.5206 31° Northeast 405 466 26,800 1,050 Climbing Fort Worth Center
Mon 08:24:18 PM 31.5481 -94.4517 31° Northeast 405 466 27,900 1,250 Climbing Fort Worth Center
Mon 08:25:18 PM 31.6447 -94.3850 30° Northeast 405 466 29,300 1,400 Climbing Fort Worth Center
Mon 08:26:18 PM 31.7369 -94.3211 31° Northeast 399 459 30,700 850 Climbing Fort Worth Center
Mon 08:27:18 PM 31.8356 -94.2517 31° Northeast 399 459 31,000 150 Climbing Fort Worth Center
Mon 08:28:18 PM 31.9422 -94.1744 32° Northeast 419 482 31,000  Level Fort Worth Center
Mon 08:29:18 PM 32.0508 -94.0972 31° Northeast 441 507 31,000  Level Fort Worth Center
Mon 08:30:18 PM 32.1636 -94.0194 30° Northeast 453 521 31,000  Level Fort Worth Center
Mon 08:31:18 PM 32.2719 -93.9367 33° Northeast 458 527 31,000  Level Fort Worth Center
Mon 08:32:18 PM 32.3825 -93.8589 31° Northeast 465 535 31,000  Level Fort Worth Center
Mon 08:33:18 PM 32.4950 -93.7781 31° Northeast 465 535 31,000  Level Fort Worth Center
Mon 08:34:18 PM 32.6031 -93.6947 33° Northeast 465 535 31,000  Level Fort Worth Center
Mon 08:35:18 PM 32.6872 -93.5778 49° Northeast 453 521 31,000  Level Fort Worth Center
Mon 08:36:18 PM 32.7692 -93.4606 50° Northeast 453 521 31,000 -250 Level Fort Worth Center
Mon 08:37:18 PM 32.8531 -93.3431 50° Northeast 458 527 30,500 -1,000 Descending Fort Worth Center
Mon 08:38:18 PM 32.9350 -93.2256 50° Northeast 463 533 29,000 -1,450 Descending Fort Worth Center
Mon 08:39:18 PM 33.0231 -93.1197 45° Northeast 457 526 27,600 -1,450 Descending Fort Worth Center
Mon 08:40:18 PM 33.1314 -93.0528 27° Northeast 451 519 26,100 -1,450 Descending Fort Worth Center
Mon 08:41:18 PM 33.2442 -92.9925 24° Northeast 434 499 24,700 -1,265 Descending Fort Worth Center
Mon 08:42:45 PM 33.4186 -92.9008 24° Northeast 457 526 23,000 -939 Descending Memphis Center
Mon 08:43:45 PM 33.5242 -92.8392 26° Northeast 435 501 22,400 -800 Descending Memphis Center
Mon 08:44:45 PM 33.6339 -92.7797 24° Northeast 424 488 21,400 -1,250 Descending Memphis Center
Mon 08:45:45 PM 33.7414 -92.7203 25° Northeast 424 488 19,900 -2,000 Descending Memphis Center
Mon 08:46:45 PM 33.8425 -92.6631 25° Northeast 413 475 17,400 -2,500 Descending Memphis Center
Mon 08:47:45 PM 33.9417 -92.6056 26° Northeast 400 460 14,900 -2,533 Descending Memphis Center
Mon 08:48:15 PM 33.9861 -92.5817 24° Northeast 394 453 13,600 -2,500 Descending Memphis Center
Mon 08:48:45 PM 34.0428 -92.5531 23° Northeast 395 455 12,400 -2,557 Descending Memphis Center
Mon 08:49:16 PM 34.0892 -92.5242 27° Northeast 388 447 11,000 -2,300 Descending Memphis Center
Mon 08:49:45 PM 34.1358 -92.4928 29° Northeast 383 441 10,100 -1,100 Descending Memphis Center
Mon 08:50:16 PM 34.1717 -92.4736 24° Northeast 337 388 9,900 -500 Descending Memphis Center
Mon 08:50:45 PM 34.2136 -92.4469 28° Northeast 348 400 9,600 -1,180 Descending Memphis Center
Mon 08:51:17 PM 34.2475 -92.4303 22° Northeast 272 313 8,700 -1,500 Descending Memphis Center
Mon 08:51:45 PM 34.2853 -92.4083 26° Northeast 303 349 8,100 -1,475 Descending Memphis Center
Mon 08:52:18 PM 34.3233 -92.3892 23° Northeast 279 321 7,200 -1,300 Descending Memphis Center
Mon 08:52:45 PM 34.3528 -92.3672 32° Northeast 277 319 6,800 -1,100 Descending Memphis Center
Mon 08:53:18 PM 34.3844 -92.3503 24° Northeast 268 308 6,100 -1,200 Descending Memphis Center
Mon 08:53:45 PM 34.4222 -92.3286 25° Northeast 264 304 5,600 -1,082 Descending Memphis Center
Mon 08:54:19 PM 34.4581 -92.3092 24° Northeast 274 315 5,000 -600 Descending Memphis Center
Mon 08:54:45 PM 34.4917 -92.2900 25° Northeast 259 298 5,000  Level Memphis Center
Mon 08:55:20 PM 34.5275 -92.2681 27° Northeast 277 319 5,000  Level Memphis Center
Mon 08:55:45 PM 34.5592 -92.2486 27° Northeast 259 298 5,000  Level Memphis Center
Mon 08:56:20 PM 34.5989 -92.2317 19° North 277 319 5,000  Level Memphis Center
Mon 08:56:45 PM 34.6306 -92.2097 30° Northeast 264 304 5,000  Level Memphis Center
Mon 08:57:15 PM 34.6581 -92.1928 27° Northeast 277 319 5,000 -200 Level Memphis Center
Mon 08:57:45 PM 34.6981 -92.1658 29° Northeast 264 304 4,800 -1,200 Descending Memphis Center
Mon 08:58:15 PM 34.7214 -92.1408 41° Northeast 254 292 3,800 -2,200 Descending Memphis Center
Mon 08:58:45 PM 34.7531 -92.1139 35° Northeast 256 295 2,600 -2,400 Descending Memphis Center

Login

Don't have an account? Register now (free) for customized features, flight alerts, and more!